Apache, OK

6:36 AM CST on March 06, 2015 (GMT -0600)
Fletcher | Change Station
CLOSE
Current Station
Personal Weather Station
Location: Fletcher, OK
Elevation: 1375 ft
Nearby Weather Stations

Elev 1375 ft 34.82 °N, 98.24 °W | Updated 6 minutes ago

Clear
Clear
21.4 °F
Feels Like 21 °F
N
0.0
Wind Variable Wind from NNE

Today
High -- | Low -- °F
--% Chance of Precip.
Yesterday
High -- | Low -- °F
Precip. -- in
6:56 AM 6:33 PM
Waxing Gibbous, 99% visible
Pressure 30.51 in
Visibility 10.0 miles
Clouds Clear
Windchill 21 °F
Dew Point 18 °F
Humidity 88%
Rainfall in
Snow Depth Not available.
UV 0 out of 12
Pollen 7.90 out of 12
Air Quality Not available.
Flu Activity Not available.
METAR KFSI 061158Z AUTO 21004KT 10SM CLR M04/M07 A3048 RMK AO2 SLP332 T10451067 11015 21053 55004

More Conditions Fewer Conditions

Pressure 30.51 in
Visibility 10.0 miles
Clouds Clear
Windchill 21 °F
Dew Point 18 °F
Humidity 88%
Rainfall in
Snow Depth Not available.
UV 0 out of 12
Pollen 7.90 out of 12
Air Quality Not available.
Flu Activity Not available.
METAR KFSI 061158Z AUTO 21004KT 10SM CLR M04/M07 A3048 RMK AO2 SLP332 T10451067 11015 21053 55004

More Conditions Fewer Conditions

10-Day Weather Forecast

Almanac

Astronomy

Mar. 06, 2015 Rise Set
Actual Time
Civil Twilight
Nautical Twilight
Astronomical Twilight
Moon
Length of Visible Light
Length of Day
Tomorrow will be .
, % of the Moon is Illuminated

Today's Extremes

State Highs State Lows

Community

WunderPhotos

Upload Photos

1,803,245 photos uploaded!

WunderBlogs® & News

Nearby

Air Quality

  Air Quality AQ Index Pollutant
Not available.

Snow Depth

Station Depth Elevation

Earthquake Activity

City Distance Mag. Time & Date
Minimum magnitude displayed is 2.5.

Coastal Water Temperatures

Place Temperature

Nearby Weather Stations